Time;durP1;ratioP1;P1;durP2;ratioP2;P2;SDS_P1;SDS_P2;PMS_P1;PMS_P2;Temp;Humidity;BMP_temperature;BMP_pressure;BME280_temperature;BME280_humidity;BME280_pressure;Samples;Min_cycle;Max_cycle;Signal;HPM_P1;HPM_P2
2022/06/02 00:01:49;;;;;;;0.20;0.20;;;9.80;99.90;;;;;;5007193;28;20593;-83
2022/06/02 00:04:50;;;;;;;0.20;0.20;;;9.70;99.90;;;;;;4984317;28;20455;-81
2022/06/02 00:07:28;;;;;;;0.20;0.20;;;9.70;99.90;;;;;;4964888;28;20447;-81
2022/06/02 00:10:12;;;;;;;0.20;0.20;;;9.60;99.90;;;;;;4996472;28;20475;-85
2022/06/02 00:13:06;;;;;;;0.20;0.20;;;9.50;99.90;;;;;;4999886;28;20573;-82
2022/06/02 00:15:41;;;;;;;0.20;0.20;;;9.50;99.90;;;;;;4965999;28;20519;-82
2022/06/02 00:18:42;;;;;;;0.20;0.20;;;9.30;99.90;;;;;;4999157;28;20446;-81
2022/06/02 00:21:26;;;;;;;0.20;0.20;;;9.30;99.90;;;;;;4991833;28;20454;-82
2022/06/02 00:24:06;;;;;;;0.20;0.20;;;9.40;99.90;;;;;;4996555;28;20457;-82
2022/06/02 00:26:40;;;;;;;0.20;0.20;;;9.40;99.90;;;;;;4992126;28;20451;-81
2022/06/02 00:29:38;;;;;;;0.20;0.20;;;9.30;99.90;;;;;;5011032;28;20455;-79
2022/06/02 00:32:07;;;;;;;0.20;0.20;;;9.30;99.90;;;;;;4990995;28;20453;-81
2022/06/02 00:35:11;;;;;;;0.20;0.20;;;9.40;99.90;;;;;;5007790;28;20939;-81
2022/06/02 00:37:51;;;;;;;0.20;0.20;;;9.50;99.90;;;;;;4997025;28;20474;-81
2022/06/02 00:40:17;;;;;;;0.20;0.20;;;9.30;99.90;;;;;;5001580;28;20443;-81
2022/06/02 00:42:59;;;;;;;0.20;0.20;;;9.20;99.90;;;;;;5006333;28;20439;-81
2022/06/02 00:45:25;;;;;;;0.20;0.20;;;9.10;99.90;;;;;;5011345;28;20494;-81
2022/06/02 00:48:11;;;;;;;0.20;0.20;;;9.10;99.90;;;;;;5008699;28;20530;-81
2022/06/02 00:50:41;;;;;;;0.20;0.20;;;9.20;99.90;;;;;;5005591;28;20188;-80
2022/06/02 00:53:20;;;;;;;0.20;0.20;;;9.10;99.90;;;;;;5004204;28;20443;-82
2022/06/02 00:59:17;;;;;;;0.20;0.20;;;9.10;99.90;;;;;;5007644;28;20575;-81
2022/06/02 01:01:43;;;;;;;0.20;0.20;;;9.10;99.90;;;;;;4999641;28;20514;-81
2022/06/02 01:04:14;;;;;;;0.30;0.30;;;9.20;99.90;;;;;;5010246;28;20486;-81
2022/06/02 01:06:46;;;;;;;0.20;0.20;;;9.20;99.90;;;;;;5007443;28;20603;-81
2022/06/02 01:09:26;;;;;;;0.20;0.20;;;9.00;99.90;;;;;;5008145;28;20475;-82
2022/06/02 01:12:11;;;;;;;0.30;0.30;;;9.10;99.90;;;;;;4989145;28;20450;-81
2022/06/02 01:15:11;;;;;;;0.20;0.20;;;9.10;99.90;;;;;;5010099;28;20532;-81
2022/06/02 01:18:01;;;;;;;0.30;0.30;;;9.20;99.90;;;;;;4973807;28;20982;-82
2022/06/02 01:20:40;;;;;;;0.20;0.20;;;9.20;99.90;;;;;;4982396;28;20436;-82
2022/06/02 01:23:36;;;;;;;0.30;0.30;;;9.20;99.90;;;;;;4989458;28;20442;-81
2022/06/02 01:26:24;;;;;;;0.30;0.30;;;9.20;99.90;;;;;;5001948;28;20475;-81
2022/06/02 01:29:04;;;;;;;0.30;0.30;;;9.20;99.90;;;;;;5010476;28;20419;-81
2022/06/02 01:31:51;;;;;;;0.20;0.20;;;9.20;99.90;;;;;;5008434;28;20449;-78
2022/06/02 01:34:52;;;;;;;0.30;0.30;;;9.10;99.90;;;;;;5006577;28;20470;-81
2022/06/02 01:37:50;;;;;;;0.20;0.20;;;9.20;99.90;;;;;;5004688;28;20446;-84
2022/06/02 01:40:48;;;;;;;0.20;0.20;;;9.20;99.90;;;;;;4992065;28;20440;-81
2022/06/02 01:43:28;;;;;;;0.20;0.20;;;9.10;99.90;;;;;;5000472;28;20439;-80
2022/06/02 01:46:14;;;;;;;0.20;0.20;;;9.10;99.90;;;;;;5008032;28;20453;-81
2022/06/02 01:49:08;;;;;;;0.20;0.20;;;9.00;99.90;;;;;;5009676;28;20493;-81
2022/06/02 01:51:43;;;;;;;0.20;0.20;;;9.00;99.90;;;;;;5008435;28;20604;-81
2022/06/02 01:54:21;;;;;;;0.20;0.20;;;8.90;99.90;;;;;;5006368;28;20462;-82
2022/06/02 01:56:52;;;;;;;0.20;0.20;;;9.00;99.90;;;;;;5012706;28;20538;-81
2022/06/02 01:59:32;;;;;;;0.20;0.20;;;9.10;99.90;;;;;;4994709;28;20431;-81
2022/06/02 02:02:03;;;;;;;0.20;0.20;;;9.00;99.90;;;;;;5010582;28;20487;-82
2022/06/02 02:04:49;;;;;;;0.30;0.30;;;9.10;99.90;;;;;;5007269;28;20491;-80
2022/06/02 02:07:29;;;;;;;0.20;0.20;;;9.10;99.90;;;;;;5011515;28;20450;-81
2022/06/02 02:10:01;;;;;;;0.20;0.20;;;9.10;99.90;;;;;;5013055;28;20538;-81
2022/06/02 02:12:45;;;;;;;0.20;0.20;;;9.20;99.90;;;;;;5005337;28;20450;-80
2022/06/02 02:15:38;;;;;;;0.20;0.20;;;9.20;99.90;;;;;;4995632;28;20482;-82
2022/06/02 02:18:23;;;;;;;0.20;0.20;;;9.20;99.90;;;;;;5013291;28;20450;-81
2022/06/02 02:21:00;;;;;;;0.20;0.20;;;9.10;99.90;;;;;;5009224;28;20501;-81
2022/06/02 02:23:46;;;;;;;0.20;0.20;;;9.10;99.90;;;;;;4989063;28;20451;-82
2022/06/02 02:26:25;;;;;;;0.20;0.20;;;9.10;99.90;;;;;;4994747;28;20446;-81
2022/06/02 02:29:13;;;;;;;0.20;0.20;;;9.10;99.90;;;;;;5002052;28;20501;-81
2022/06/02 02:31:48;;;;;;;0.30;0.30;;;9.00;99.90;;;;;;4995820;28;20418;-80
2022/06/02 02:34:25;;;;;;;0.20;0.20;;;9.00;99.90;;;;;;5004193;28;20470;-83
2022/06/02 02:37:32;;;;;;;0.30;0.30;;;9.00;99.90;;;;;;5009395;28;20457;-85
2022/06/02 02:40:03;;;;;;;0.20;0.20;;;9.10;99.90;;;;;;4947699;28;20449;-82
2022/06/02 02:42:32;;;;;;;0.30;0.30;;;9.10;99.90;;;;;;4953182;29;20426;-81
2022/06/02 02:45:29;;;;;;;0.30;0.30;;;9.00;99.90;;;;;;4983848;28;20984;-81
2022/06/02 02:48:25;;;;;;;0.20;0.20;;;9.00;99.90;;;;;;5005607;28;20451;-81
2022/06/02 02:51:16;;;;;;;0.30;0.30;;;9.10;99.90;;;;;;4994021;28;20814;-80
2022/06/02 02:53:59;;;;;;;0.20;0.20;;;9.10;99.90;;;;;;5010174;28;20439;-80
2022/06/02 02:56:48;;;;;;;0.20;0.20;;;9.20;99.90;;;;;;5010823;28;20451;-83
2022/06/02 02:59:39;;;;;;;0.20;0.20;;;9.10;99.90;;;;;;4993096;28;21034;-85
2022/06/02 03:02:39;;;;;;;0.20;0.20;;;9.20;99.90;;;;;;5000485;28;20479;-82
2022/06/02 03:05:25;;;;;;;0.20;0.20;;;9.20;99.90;;;;;;4988639;28;20946;-82
2022/06/02 03:07:51;;;;;;;0.30;0.30;;;9.20;99.90;;;;;;5010183;28;20535;-81
2022/06/02 03:10:35;;;;;;;0.30;0.30;;;9.20;99.90;;;;;;5011443;28;20447;-81
2022/06/02 03:13:30;;;;;;;0.20;0.20;;;9.20;99.90;;;;;;5010965;28;20431;-83
2022/06/02 03:16:05;;;;;;;0.27;0.27;;;9.30;99.90;;;;;;5012016;28;20486;-81
2022/06/02 03:18:46;;;;;;;0.20;0.20;;;9.30;99.90;;;;;;4993761;28;20458;-82
2022/06/02 03:21:30;;;;;;;0.30;0.30;;;9.30;99.90;;;;;;5011365;28;20447;-81
2022/06/02 03:24:16;;;;;;;0.20;0.20;;;9.30;99.90;;;;;;5010359;28;20450;-81
2022/06/02 03:27:18;;;;;;;0.30;0.30;;;9.30;99.90;;;;;;5011511;28;20546;-84
2022/06/02 03:29:59;;;;;;;0.20;0.20;;;9.30;99.90;;;;;;5012071;28;20438;-82
2022/06/02 03:32:36;;;;;;;0.20;0.20;;;9.20;99.90;;;;;;5010286;28;20451;-82
2022/06/02 03:35:26;;;;;;;0.30;0.30;;;9.20;99.90;;;;;;5010986;28;20486;-83
2022/06/02 03:38:14;;;;;;;0.27;0.27;;;9.30;99.90;;;;;;5008981;28;20451;-82
2022/06/02 03:41:08;;;;;;;0.30;0.30;;;9.30;99.90;;;;;;5003528;28;20459;-83
2022/06/02 03:44:00;;;;;;;0.20;0.20;;;9.30;99.90;;;;;;5010944;28;20939;-83
2022/06/02 03:46:51;;;;;;;0.30;0.30;;;9.40;99.90;;;;;;5012245;28;20432;-82
2022/06/02 03:49:44;;;;;;;0.20;0.20;;;9.40;99.90;;;;;;5009658;28;20451;-81
2022/06/02 03:52:19;;;;;;;0.20;0.20;;;9.50;99.90;;;;;;4994444;28;20439;-81
2022/06/02 03:54:53;;;;;;;0.20;0.20;;;9.50;99.90;;;;;;5008144;28;20486;-83
2022/06/02 03:57:42;;;;;;;0.20;0.20;;;9.50;99.90;;;;;;5008941;28;20446;-84
2022/06/02 04:00:28;;;;;;;0.30;0.30;;;9.60;99.90;;;;;;5011264;28;20501;-83
2022/06/02 04:03:03;;;;;;;0.20;0.20;;;9.60;99.90;;;;;;5011214;28;21056;-83
2022/06/02 04:05:46;;;;;;;0.30;0.30;;;9.60;99.90;;;;;;4986842;28;20445;-85
2022/06/02 04:08:37;;;;;;;0.20;0.20;;;9.60;99.90;;;;;;5007659;28;20896;-84
2022/06/02 04:11:14;;;;;;;0.20;0.20;;;9.60;99.90;;;;;;5010490;28;20998;-84
2022/06/02 04:13:42;;;;;;;0.20;0.20;;;9.60;99.90;;;;;;4993436;28;20445;-87
2022/06/02 04:16:16;;;;;;;0.20;0.20;;;9.60;99.90;;;;;;5003892;28;20573;-87
2022/06/02 04:20:34;;;;;;;0.20;0.20;;;9.60;99.90;;;;;;5003680;28;20527;-88
2022/06/02 04:22:28;;;;;;;0.20;0.20;;;9.60;99.90;;;;;;5005629;28;20452;-85
2022/06/02 04:25:19;;;;;;;0.20;0.20;;;9.60;99.90;;;;;;4990428;28;20570;-84
2022/06/02 04:28:13;;;;;;;0.20;0.20;;;9.50;99.90;;;;;;4991562;28;20941;-87
2022/06/02 04:31:07;;;;;;;0.20;0.20;;;9.50;99.90;;;;;;5006412;28;20894;-85
2022/06/02 04:33:42;;;;;;;0.30;0.30;;;9.50;99.90;;;;;;4975655;28;20452;-86
2022/06/02 04:36:16;;;;;;;0.20;0.20;;;9.50;99.90;;;;;;5005681;28;20574;-79
2022/06/02 04:39:06;;;;;;;0.20;0.20;;;9.50;99.90;;;;;;4998548;28;20517;-85
2022/06/02 04:41:53;;;;;;;0.20;0.20;;;9.50;99.90;;;;;;4994153;28;20567;-86
2022/06/02 04:44:35;;;;;;;0.30;0.30;;;9.50;99.90;;;;;;4998326;28;20477;-84
2022/06/02 04:47:34;;;;;;;0.20;0.20;;;9.60;99.90;;;;;;4982489;28;20451;-85
2022/06/02 04:50:29;;;;;;;0.20;0.20;;;9.60;99.90;;;;;;4987054;28;21203;-84
2022/06/02 04:53:14;;;;;;;0.20;0.20;;;9.60;99.90;;;;;;4999567;28;20479;-85
2022/06/02 04:56:10;;;;;;;0.20;0.20;;;9.60;99.90;;;;;;4983723;28;20549;-86
2022/06/02 04:59:10;;;;;;;0.20;0.20;;;9.70;99.90;;;;;;5006494;28;20489;-86
2022/06/02 05:01:49;;;;;;;0.20;0.20;;;9.70;99.90;;;;;;4981684;28;20558;-86
2022/06/02 05:04:27;;;;;;;0.20;0.20;;;9.80;99.90;;;;;;5010686;28;20773;-82
2022/06/02 05:07:02;;;;;;;0.20;0.20;;;9.80;99.90;;;;;;5005817;28;20439;-85
2022/06/02 05:09:51;;;;;;;0.20;0.20;;;9.90;99.90;;;;;;4997356;28;21131;-85
2022/06/02 05:12:51;;;;;;;0.20;0.20;;;10.00;99.90;;;;;;4978377;28;20481;-86
2022/06/02 05:15:49;;;;;;;0.20;0.20;;;10.10;99.90;;;;;;5006036;28;20482;-86
2022/06/02 05:18:26;;;;;;;0.20;0.20;;;10.10;99.90;;;;;;5002972;28;21093;-86
2022/06/02 05:21:07;;;;;;;0.20;0.20;;;10.10;99.90;;;;;;4987239;28;20449;-84
2022/06/02 05:24:13;;;;;;;0.20;0.20;;;10.10;99.90;;;;;;5003304;28;20451;-83
2022/06/02 05:27:22;;;;;;;0.20;0.20;;;10.10;99.90;;;;;;5007560;28;20554;-83
2022/06/02 05:30:15;;;;;;;0.20;0.20;;;10.20;99.90;;;;;;4978081;28;20451;-86
2022/06/02 05:33:23;;;;;;;0.20;0.20;;;10.10;99.90;;;;;;4991172;28;20457;-84
2022/06/02 05:36:06;;;;;;;0.20;0.20;;;10.20;99.90;;;;;;5002730;28;20536;-80
2022/06/02 05:39:11;;;;;;;0.10;0.10;;;10.20;99.90;;;;;;4987529;28;20474;-84
2022/06/02 05:41:56;;;;;;;0.20;0.20;;;10.20;99.90;;;;;;5004397;28;21100;-84
2022/06/02 05:44:40;;;;;;;0.20;0.20;;;10.30;99.90;;;;;;5003603;28;20450;-86
2022/06/02 05:47:11;;;;;;;0.20;0.20;;;10.30;99.90;;;;;;4989718;28;20443;-85
2022/06/02 05:49:59;;;;;;;0.20;0.20;;;10.40;99.90;;;;;;4992241;28;21130;-84
2022/06/02 05:52:47;;;;;;;0.20;0.20;;;10.40;99.90;;;;;;5002116;28;21329;-85
2022/06/02 05:55:23;;;;;;;0.20;0.20;;;10.50;99.90;;;;;;5007229;28;20479;-86
2022/06/02 05:58:30;;;;;;;0.10;0.10;;;10.50;99.90;;;;;;5005129;28;20435;-86
2022/06/02 06:01:05;;;;;;;0.20;0.20;;;10.60;99.90;;;;;;4993897;28;20523;-84
2022/06/02 06:03:59;;;;;;;0.10;0.10;;;10.60;99.90;;;;;;4996091;28;20478;-85
2022/06/02 06:06:41;;;;;;;0.20;0.20;;;10.70;99.90;;;;;;5008216;28;20669;-84
2022/06/02 06:09:31;;;;;;;0.20;0.20;;;10.80;99.90;;;;;;5008637;28;20791;-82
2022/06/02 06:12:21;;;;;;;0.13;0.13;;;10.90;99.90;;;;;;5008254;28;20439;-85
2022/06/02 06:15:01;;;;;;;0.10;0.10;;;10.90;99.90;;;;;;5006606;28;20483;-82
2022/06/02 06:18:17;;;;;;;0.20;0.20;;;10.90;99.90;;;;;;4987767;28;20981;-82
2022/06/02 06:21:22;;;;;;;0.20;0.20;;;10.90;99.90;;;;;;4939519;28;21012;-82
2022/06/02 06:24:28;;;;;;;0.20;0.20;;;10.90;99.90;;;;;;4985019;28;20461;-82
2022/06/02 06:27:04;;;;;;;0.20;0.20;;;10.90;99.90;;;;;;4926104;29;20462;-85
2022/06/02 06:30:05;;;;;;;0.20;0.20;;;10.80;99.90;;;;;;4981866;28;20974;-83
2022/06/02 06:32:55;;;;;;;0.20;0.20;;;10.90;99.90;;;;;;4993932;28;20541;-86
2022/06/02 06:35:39;;;;;;;0.20;0.20;;;10.80;99.90;;;;;;5000080;28;20490;-86
2022/06/02 06:38:14;;;;;;;0.20;0.20;;;10.90;99.90;;;;;;5003486;28;20446;-85
2022/06/02 06:40:42;;;;;;;0.20;0.20;;;10.90;99.90;;;;;;5007402;28;20446;-87
2022/06/02 06:43:48;;;;;;;0.30;0.30;;;11.00;99.90;;;;;;5006518;28;20441;-84
2022/06/02 06:46:28;;;;;;;0.10;0.10;;;10.90;99.90;;;;;;5001802;28;20450;-84
2022/06/02 06:48:59;;;;;;;0.20;0.20;;;11.00;99.90;;;;;;4990639;28;20534;-85
2022/06/02 06:51:58;;;;;;;0.20;0.20;;;11.00;99.90;;;;;;4986388;28;20447;-86
2022/06/02 06:54:48;;;;;;;0.20;0.20;;;11.00;99.90;;;;;;5006328;28;20471;-83
2022/06/02 06:57:26;;;;;;;0.20;0.20;;;11.20;99.90;;;;;;5006060;28;20482;-85
2022/06/02 07:00:19;;;;;;;0.20;0.20;;;11.20;99.90;;;;;;4992503;28;20492;-84
2022/06/02 07:03:09;;;;;;;0.20;0.20;;;11.10;99.90;;;;;;5005675;28;21101;-88
2022/06/02 07:05:49;;;;;;;0.20;0.20;;;11.00;99.90;;;;;;4996234;28;20435;-87
2022/06/02 07:08:34;;;;;;;0.20;0.20;;;11.10;99.90;;;;;;5006520;28;20526;-81
2022/06/02 07:14:26;;;;;;;0.20;0.20;;;11.10;99.90;;;;;;5008851;28;20808;-84
2022/06/02 07:16:55;;;;;;;0.20;0.20;;;11.10;99.90;;;;;;5003816;28;20452;-84
2022/06/02 07:19:46;;;;;;;0.10;0.10;;;11.10;99.90;;;;;;4999025;28;20668;-83
2022/06/02 07:22:24;;;;;;;0.20;0.20;;;11.10;99.90;;;;;;4992374;28;20949;-88
2022/06/02 07:25:18;;;;;;;0.10;0.10;;;11.00;99.90;;;;;;4988195;28;20439;-84
2022/06/02 07:28:02;;;;;;;0.20;0.20;;;11.00;99.90;;;;;;5009698;28;20509;-87
2022/06/02 07:30:51;;;;;;;0.13;0.13;;;11.00;99.90;;;;;;5004926;28;20462;-82
2022/06/02 07:33:28;;;;;;;0.10;0.10;;;11.10;99.90;;;;;;5007427;28;20439;-85
2022/06/02 07:36:31;;;;;;;0.20;0.20;;;11.10;99.90;;;;;;5004551;28;20539;-84
2022/06/02 07:39:13;;;;;;;0.10;0.10;;;11.30;99.90;;;;;;5007031;28;20447;-91
2022/06/02 07:41:41;;;;;;;0.10;0.10;;;11.30;99.90;;;;;;5004397;28;20453;-83
2022/06/02 07:44:24;;;;;;;0.10;0.10;;;11.40;99.90;;;;;;5004598;28;20867;-83
2022/06/02 07:47:23;;;;;;;0.10;0.10;;;11.50;99.90;;;;;;5007466;28;20505;-85
2022/06/02 07:50:04;;;;;;;0.10;0.10;;;11.70;99.90;;;;;;5004444;28;20466;-84
2022/06/02 07:53:03;;;;;;;0.10;0.10;;;11.70;99.90;;;;;;4989004;28;21117;-89
2022/06/02 07:55:58;;;;;;;0.10;0.10;;;11.70;99.90;;;;;;5005987;28;20479;-83
2022/06/02 07:58:56;;;;;;;0.10;0.10;;;11.70;99.90;;;;;;5008391;28;20443;-84
2022/06/02 08:01:21;;;;;;;0.20;0.20;;;11.60;99.90;;;;;;5001174;28;20450;-83
2022/06/02 08:04:26;;;;;;;0.10;0.10;;;11.60;99.90;;;;;;5011736;28;20578;-84
2022/06/02 08:07:14;;;;;;;0.10;0.10;;;11.60;99.90;;;;;;4988131;28;20188;-86
2022/06/02 08:10:00;;;;;;;0.10;0.10;;;11.50;99.90;;;;;;5005086;28;20454;-81
2022/06/02 08:12:42;;;;;;;0.10;0.10;;;11.50;99.90;;;;;;5007822;28;20545;-80
2022/06/02 08:15:32;;;;;;;0.20;0.20;;;11.60;99.90;;;;;;4989494;28;20561;-82
2022/06/02 08:18:20;;;;;;;0.10;0.10;;;11.50;99.90;;;;;;5010616;28;20470;-81
2022/06/02 08:21:15;;;;;;;0.10;0.10;;;11.60;99.90;;;;;;5009951;28;20447;-82
2022/06/02 08:24:11;;;;;;;0.30;0.30;;;11.60;99.90;;;;;;5009807;28;20900;-85
2022/06/02 08:27:04;;;;;;;0.20;0.20;;;11.50;99.90;;;;;;5003365;28;20440;-81
2022/06/02 08:29:53;;;;;;;0.20;0.20;;;11.50;99.90;;;;;;4993127;28;20450;-85
2022/06/02 08:32:44;;;;;;;0.20;0.20;;;11.60;99.90;;;;;;4992248;28;21061;-80
2022/06/02 08:35:38;;;;;;;0.20;0.20;;;11.60;99.90;;;;;;5010713;28;20494;-80
2022/06/02 08:38:15;;;;;;;0.20;0.20;;;11.60;99.90;;;;;;4994477;28;20454;-78
2022/06/02 08:41:01;;;;;;;0.20;0.20;;;11.60;99.90;;;;;;5008642;28;20946;-82
2022/06/02 08:43:54;;;;;;;0.20;0.20;;;11.60;99.90;;;;;;5012844;28;20444;-84
2022/06/02 08:46:26;;;;;;;0.20;0.20;;;11.60;99.90;;;;;;5006800;28;20451;-80
2022/06/02 08:49:14;;;;;;;0.20;0.20;;;11.60;99.90;;;;;;5007383;28;20570;-82
2022/06/02 08:52:12;;;;;;;0.20;0.20;;;11.60;99.90;;;;;;5007668;28;20451;-80
2022/06/02 08:54:59;;;;;;;0.20;0.20;;;11.50;99.90;;;;;;5006985;28;21032;-82
2022/06/02 08:57:48;;;;;;;0.20;0.20;;;11.60;99.90;;;;;;4990340;28;20465;-82
2022/06/02 09:00:38;;;;;;;0.20;0.20;;;11.60;99.90;;;;;;5001419;28;20451;-82
2022/06/02 09:03:18;;;;;;;0.10;0.10;;;11.60;99.90;;;;;;4946870;28;20522;-81
2022/06/02 09:05:59;;;;;;;0.20;0.20;;;11.60;99.90;;;;;;4985678;28;20458;-82
2022/06/02 09:08:41;;;;;;;0.10;0.10;;;11.60;99.90;;;;;;5000295;28;20443;-83
2022/06/02 09:11:36;;;;;;;0.20;0.20;;;11.70;99.90;;;;;;4984971;28;20443;-82
2022/06/02 09:14:17;;;;;;;0.10;0.10;;;11.80;99.90;;;;;;4896619;28;20469;-81
2022/06/02 09:17:16;;;;;;;0.10;0.10;;;11.80;99.90;;;;;;5005287;28;20513;-79
2022/06/02 09:19:54;;;;;;;0.10;0.10;;;11.90;99.90;;;;;;5000790;28;20482;-80
2022/06/02 09:22:20;;;;;;;0.10;0.10;;;12.00;99.90;;;;;;4983838;28;20479;-80
2022/06/02 09:25:07;;;;;;;0.10;0.10;;;12.00;99.90;;;;;;5002145;28;20471;-81
2022/06/02 09:27:42;;;;;;;0.10;0.10;;;12.10;99.90;;;;;;4988154;28;20323;-86
2022/06/02 09:30:18;;;;;;;0.10;0.10;;;12.20;99.90;;;;;;4983884;28;20538;-82
2022/06/02 09:33:33;;;;;;;0.10;0.10;;;12.20;99.90;;;;;;4999402;28;20446;-80
2022/06/02 09:36:17;;;;;;;0.23;0.23;;;12.40;99.90;;;;;;4997890;28;20482;-82
2022/06/02 09:39:02;;;;;;;0.10;0.10;;;12.50;99.90;;;;;;4975879;28;20440;-82
2022/06/02 09:41:47;;;;;;;0.20;0.20;;;12.50;99.90;;;;;;5000091;28;20451;-80
2022/06/02 09:44:27;;;;;;;0.20;0.20;;;12.70;99.90;;;;;;4999077;28;20439;-83
2022/06/02 09:47:28;;;;;;;0.20;0.20;;;12.80;99.90;;;;;;4979919;28;20823;-79
2022/06/02 09:50:02;;;;;;;0.20;0.20;;;13.10;99.90;;;;;;5001159;28;20574;-85
2022/06/02 09:52:59;;;;;;;0.10;0.10;;;13.30;99.90;;;;;;5009770;28;20446;-82
2022/06/02 09:55:31;;;;;;;0.10;0.10;;;13.40;99.90;;;;;;4987902;28;20502;-77
2022/06/02 09:58:17;;;;;;;0.20;0.20;;;13.60;99.90;;;;;;5010631;28;20427;-81
2022/06/02 10:01:10;;;;;;;0.10;0.10;;;14.40;99.90;;;;;;4987059;28;20787;-82
2022/06/02 10:04:20;;;;;;;0.10;0.10;;;14.80;99.90;;;;;;5007585;28;20479;-84
2022/06/02 10:07:14;;;;;;;0.10;0.10;;;15.10;99.90;;;;;;4979423;28;20530;-80
2022/06/02 10:10:01;;;;;;;0.10;0.10;;;14.80;99.90;;;;;;4952080;28;20455;-86
2022/06/02 10:12:55;;;;;;;0.20;0.20;;;14.40;99.90;;;;;;4981133;28;20542;-82
2022/06/02 10:15:42;;;;;;;0.10;0.10;;;14.20;99.90;;;;;;5001596;28;20995;-77
2022/06/02 10:18:13;;;;;;;0.10;0.10;;;14.00;99.90;;;;;;4994442;28;20836;-79
2022/06/02 10:20:42;;;;;;;0.20;0.20;;;13.80;99.90;;;;;;5012731;28;20969;-78
2022/06/02 10:23:16;;;;;;;0.10;0.10;;;13.60;99.90;;;;;;5010337;28;20439;-79
2022/06/02 10:26:07;;;;;;;0.20;0.20;;;13.50;99.90;;;;;;5010165;28;20788;-77
2022/06/02 10:29:17;;;;;;;0.10;0.10;;;13.60;99.90;;;;;;5006968;28;20533;-79
2022/06/02 10:32:15;;;;;;;0.10;0.10;;;13.60;99.90;;;;;;4995806;28;20451;-77
2022/06/02 10:34:52;;;;;;;0.10;0.10;;;13.60;99.90;;;;;;5022390;28;20473;-77
2022/06/02 10:37:43;;;;;;;0.10;0.10;;;13.30;99.90;;;;;;5018110;28;20529;-78
2022/06/02 10:40:29;;;;;;;0.10;0.10;;;13.40;99.90;;;;;;5007781;28;20451;-79
2022/06/02 10:43:33;;;;;;;0.10;0.10;;;13.60;99.90;;;;;;5009849;28;20438;-79
2022/06/02 10:46:07;;;;;;;0.10;0.10;;;14.00;99.90;;;;;;5010308;28;20453;-80
2022/06/02 10:48:53;;;;;;;0.10;0.10;;;14.00;99.90;;;;;;4993050;28;20866;-77
2022/06/02 10:51:53;;;;;;;0.10;0.10;;;13.70;99.90;;;;;;4987174;28;20505;-78
2022/06/02 10:54:58;;;;;;;0.10;0.10;;;13.50;99.90;;;;;;4991304;28;21060;-77
2022/06/02 10:57:29;;;;;;;0.10;0.10;;;13.50;99.90;;;;;;5004837;28;20478;-77
2022/06/02 11:00:32;;;;;;;0.10;0.10;;;13.60;99.90;;;;;;4994470;28;20454;-77
2022/06/02 11:03:30;;;;;;;0.20;0.20;;;13.70;99.90;;;;;;5002285;28;20986;-81
2022/06/02 11:06:34;;;;;;;0.10;0.10;;;14.50;99.90;;;;;;5011703;28;20439;-77
2022/06/02 11:09:49;;;;;;;0.10;0.10;;;14.80;99.90;;;;;;4991065;28;21147;-77
2022/06/02 11:12:36;;;;;;;0.10;0.10;;;15.30;99.90;;;;;;5011269;28;20874;-77
2022/06/02 11:15:41;;;;;;;0.10;0.10;;;15.50;99.90;;;;;;5002992;28;20525;-77
2022/06/02 11:18:38;;;;;;;0.10;0.10;;;15.30;99.90;;;;;;5010628;28;20534;-81
2022/06/02 11:21:25;;;;;;;0.10;0.10;;;15.90;99.90;;;;;;5012071;28;20423;-80
2022/06/02 11:24:12;;;;;;;0.10;0.10;;;15.90;99.90;;;;;;4999669;28;20490;-79
2022/06/02 11:27:15;;;;;;;0.10;0.10;;;15.60;99.90;;;;;;5000637;28;20802;-81
2022/06/02 11:29:59;;;;;;;0.10;0.10;;;16.00;99.90;;;;;;5008456;28;20881;-79
2022/06/02 11:32:44;;;;;;;0.10;0.10;;;16.10;99.90;;;;;;4981340;28;21304;-81
2022/06/02 11:35:54;;;;;;;0.10;0.10;;;15.80;99.90;;;;;;4989994;28;20501;-81
2022/06/02 11:39:02;;;;;;;0.10;0.10;;;15.40;99.90;;;;;;5007078;28;20451;-79
2022/06/02 11:41:55;;;;;;;0.10;0.10;;;15.10;99.90;;;;;;4989045;28;20471;-80
2022/06/02 11:45:02;;;;;;;0.10;0.10;;;15.00;99.90;;;;;;4989699;28;20534;-78
2022/06/02 11:47:51;;;;;;;0.10;0.10;;;14.80;99.90;;;;;;5009823;28;20801;-78
2022/06/02 11:50:33;;;;;;;0.10;0.10;;;16.10;99.90;;;;;;5008983;28;20474;-79
2022/06/02 11:53:17;;;;;;;0.10;0.10;;;16.80;99.90;;;;;;4992209;28;20530;-82
2022/06/02 11:56:12;;;;;;;0.10;0.10;;;16.80;99.90;;;;;;5007338;28;20537;-81
2022/06/02 11:59:10;;;;;;;0.10;0.10;;;16.60;99.90;;;;;;4993092;28;21132;-80
2022/06/02 12:01:47;;;;;;;0.10;0.10;;;16.40;99.90;;;;;;5004094;28;20526;-80
2022/06/02 12:04:22;;;;;;;0.10;0.10;;;16.00;99.90;;;;;;5005306;28;20746;-79
2022/06/02 12:07:25;;;;;;;0.10;0.10;;;16.40;99.90;;;;;;4983554;28;20497;-80
2022/06/02 12:10:16;;;;;;;0.10;0.10;;;16.20;99.90;;;;;;4984738;28;20478;-82
2022/06/02 12:12:50;;;;;;;0.10;0.10;;;16.00;99.90;;;;;;5003737;28;20526;-78
2022/06/02 12:15:34;;;;;;;0.10;0.10;;;16.10;99.90;;;;;;5008523;28;20532;-79
2022/06/02 12:18:39;;;;;;;0.10;0.10;;;15.80;99.90;;;;;;4988936;28;20641;-81
2022/06/02 12:21:26;;;;;;;0.10;0.10;;;15.60;99.90;;;;;;4983649;28;20913;-80
2022/06/02 12:24:23;;;;;;;0.10;0.10;;;15.60;99.90;;;;;;5001748;28;20573;-82
2022/06/02 12:27:24;;;;;;;0.10;0.10;;;15.90;99.90;;;;;;5008273;28;20462;-82
2022/06/02 12:30:02;;;;;;;0.10;0.10;;;16.50;99.90;;;;;;5005258;28;20443;-87
2022/06/02 12:32:42;;;;;;;0.10;0.10;;;16.20;99.90;;;;;;5009962;28;20435;-84
2022/06/02 12:35:19;;;;;;;0.10;0.10;;;15.90;99.90;;;;;;5009507;28;20540;-82
2022/06/02 12:37:50;;;;;;;0.10;0.10;;;15.40;99.90;;;;;;4991791;28;20457;-83
2022/06/02 12:40:34;;;;;;;0.10;0.10;;;15.20;99.90;;;;;;4991336;28;20451;-79
2022/06/02 12:43:19;;;;;;;0.10;0.10;;;15.30;99.90;;;;;;4995984;28;20465;-81
2022/06/02 12:45:49;;;;;;;0.10;0.10;;;15.40;99.90;;;;;;4997807;28;20952;-82
2022/06/02 12:48:39;;;;;;;0.10;0.10;;;15.60;99.90;;;;;;5011548;28;20424;-82
2022/06/02 12:51:17;;;;;;;0.10;0.10;;;15.50;99.90;;;;;;5010627;28;20486;-80
2022/06/02 12:54:21;;;;;;;0.10;0.10;;;15.00;99.90;;;;;;4991113;28;20486;-79
2022/06/02 12:57:15;;;;;;;0.10;0.10;;;14.90;99.90;;;;;;5007220;28;20443;-81
2022/06/02 13:00:02;;;;;;;0.10;0.10;;;15.70;99.90;;;;;;4976447;28;20477;-84
2022/06/02 13:03:05;;;;;;;0.10;0.10;;;15.40;99.90;;;;;;5011198;28;20494;-81
2022/06/02 13:06:02;;;;;;;0.10;0.10;;;15.30;99.90;;;;;;4992600;28;20841;-82
2022/06/02 13:09:10;;;;;;;0.10;0.10;;;15.10;99.90;;;;;;5007477;28;20609;-82
2022/06/02 13:11:36;;;;;;;0.10;0.10;;;14.80;99.90;;;;;;5009971;28;20435;-80
2022/06/02 13:14:22;;;;;;;0.10;0.10;;;14.80;99.90;;;;;;5008508;28;20958;-82
2022/06/02 13:17:00;;;;;;;0.10;0.10;;;14.70;99.90;;;;;;5010969;28;20663;-80
2022/06/02 13:19:43;;;;;;;0.10;0.10;;;14.80;99.90;;;;;;4991610;28;20423;-82
2022/06/02 13:22:30;;;;;;;0.10;0.10;;;14.70;99.90;;;;;;4991860;28;21129;-83
2022/06/02 13:25:11;;;;;;;0.10;0.10;;;14.50;99.90;;;;;;4990873;28;20412;-83
2022/06/02 13:27:46;;;;;;;0.10;0.10;;;14.40;99.90;;;;;;5007934;28;20573;-82
2022/06/02 13:30:30;;;;;;;0.10;0.10;;;14.40;99.90;;;;;;5007891;28;20449;-85
2022/06/02 13:33:21;;;;;;;0.10;0.10;;;14.50;99.90;;;;;;4991609;28;20466;-80
2022/06/02 13:36:04;;;;;;;0.10;0.10;;;14.40;99.90;;;;;;5009019;28;21015;-80
2022/06/02 14:08:57;;;;;;;;;;;15.10;99.90;;;;;;5078369;28;20008;-79
2022/06/02 14:11:44;;;;;;;;;;;15.10;99.90;;;;;;5069747;28;19970;-83
2022/06/02 14:14:09;;;;;;;;;;;15.20;99.90;;;;;;5065601;28;19971;-81
2022/06/02 14:16:44;;;;;;;;;;;16.00;99.90;;;;;;5065794;28;19979;-82
2022/06/02 14:19:18;;;;;;;;;;;16.00;99.90;;;;;;5065360;28;20055;-81
2022/06/02 14:21:59;;;;;;;;;;;15.50;99.90;;;;;;5062270;28;20429;-81
2022/06/02 14:24:48;;;;;;;0.10;0.10;;;15.40;99.90;;;;;;5063350;28;19977;-82
2022/06/02 14:27:28;;;;;;;0.10;0.10;;;15.80;99.90;;;;;;5060290;28;20541;-80
2022/06/02 14:30:09;;;;;;;0.10;0.10;;;15.80;99.90;;;;;;5063340;28;20937;-82
2022/06/02 14:32:44;;;;;;;0.10;0.10;;;16.40;99.90;;;;;;5062993;28;20559;-79
2022/06/02 14:35:23;;;;;;;0.10;0.10;;;16.60;99.90;;;;;;5063583;28;20454;-82
2022/06/02 14:38:17;;;;;;;0.10;0.10;;;16.60;99.90;;;;;;5064082;28;20447;-84
2022/06/02 14:40:45;;;;;;;0.10;0.10;;;16.80;99.90;;;;;;5059853;28;20440;-84
2022/06/02 14:43:38;;;;;;;0.10;0.10;;;16.70;99.90;;;;;;5060279;28;20447;-83
2022/06/02 14:46:27;;;;;;;0.10;0.10;;;16.30;99.90;;;;;;5064931;28;20447;-81
2022/06/02 14:49:18;;;;;;;0.10;0.10;;;15.80;99.90;;;;;;5064433;28;20460;-86
2022/06/02 14:52:16;;;;;;;0.10;0.10;;;15.70;99.90;;;;;;5056147;28;20447;-85
2022/06/02 14:54:50;;;;;;;0.10;0.10;;;15.90;99.90;;;;;;5062497;28;20445;-89
2022/06/02 14:57:32;;;;;;;0.10;0.10;;;16.30;99.90;;;;;;5065285;28;20440;-81
2022/06/02 15:00:02;;;;;;;0.10;0.10;;;16.30;99.90;;;;;;5062249;28;20446;-84
2022/06/02 15:03:01;;;;;;;0.10;0.10;;;16.40;99.90;;;;;;5062599;28;20436;-84
2022/06/02 15:05:45;;;;;;;0.10;0.10;;;16.20;99.90;;;;;;5064702;28;20467;-83
2022/06/02 15:08:56;;;;;;;0.10;0.10;;;16.30;99.90;;;;;;5053059;28;21276;-86
2022/06/02 15:11:43;;;;;;;0.10;0.10;;;15.90;99.90;;;;;;5055692;28;20452;-82